Time;durP1;ratioP1;P1;durP2;ratioP2;P2;SDS_P1;SDS_P2;PMS_P1;PMS_P2;Temp;Humidity;BMP_temperature;BMP_pressure;BME280_temperature;BME280_humidity;BME280_pressure;Samples;Min_cycle;Max_cycle;Signal;HPM_P1;HPM_P2
2022/11/04 00:01:26;;;;;;;;;;;;;;;26.22;44.13;93551.75;4978231;28;9168;-70
2022/11/04 00:04:01;;;;;;;;;;;;;;;26.22;43.79;93549.72;4992640;28;7340;-70
2022/11/04 00:06:29;;;;;;;;;;;;;;;26.22;43.62;93554.50;4978511;28;6990;-69
2022/11/04 00:09:42;;;;;;;;;;;;;;;26.20;44.00;93552.28;4977745;28;8247;-70
2022/11/04 00:12:27;;;;;;;;;;;;;;;26.20;43.72;93532.25;4954303;28;7309;-70
2022/11/04 00:17:17;;;;;;;;;;;;;;;26.16;43.70;93524.31;4940030;28;8706;-70
2022/11/04 00:17:50;;;;;;;;;;;;;;;26.12;43.62;93502.59;4953852;28;7832;-70
2022/11/04 00:29:48;;;;;;;;;;;;;;;26.11;44.34;93523.16;4952602;28;9448;-70
2022/11/04 00:34:59;;;;;;;;;;;;;;;26.08;43.56;93509.66;4953566;28;7309;-70
2022/11/04 00:37:25;;;;;;;;;;;;;;;26.09;43.55;93514.69;4952719;28;8191;-70
2022/11/04 00:40:02;;;;;;;;;;;;;;;26.06;43.92;93515.72;4954344;28;8718;-70
2022/11/04 00:42:44;;;;;;;;;;;;;;;26.05;43.94;93514.25;4938823;28;7389;-70
2022/11/04 00:45:25;;;;;;;;;;;;;;;26.04;44.14;93506.50;4953185;28;10414;-70
2022/11/04 00:47:54;;;;;;;;;;;;;;;26.02;43.72;93498.78;4941391;28;7002;-70
2022/11/04 00:50:19;;;;;;;;;;;;;;;26.01;43.77;93489.03;4977344;28;6993;-70
2022/11/04 00:52:45;;;;;;;;;;;;;;;26.01;44.41;93491.78;4978081;28;7236;-70
2022/11/04 00:55:11;;;;;;;;;;;;;;;26.02;43.68;93496.03;4977463;28;8998;-70
2022/11/04 00:57:46;;;;;;;;;;;;;;;26.01;44.17;93504.84;4998982;28;9740;-70
2022/11/04 01:00:29;;;;;;;;;;;;;;;25.97;44.13;93504.41;4992812;28;8744;-70
2022/11/04 01:03:28;;;;;;;;;;;;;;;26.00;43.75;93503.34;4977501;28;7268;-70
2022/11/04 01:06:25;;;;;;;;;;;;;;;25.98;44.52;93505.91;4994534;28;7506;-70
2022/11/04 01:08:58;;;;;;;;;;;;;;;25.97;43.75;93496.88;4918024;29;8775;-71
2022/11/04 01:11:28;;;;;;;;;;;;;;;25.97;43.80;93499.63;4919311;29;7320;-70
2022/11/04 01:13:57;;;;;;;;;;;;;;;25.95;43.88;93496.69;4916602;29;7242;-70
2022/11/04 01:17:10;;;;;;;;;;;;;;;25.97;43.56;93491.38;4932222;29;8424;-70
2022/11/04 01:19:41;;;;;;;;;;;;;;;25.94;44.29;93500.72;4934084;29;7584;-70
2022/11/04 01:22:06;;;;;;;;;;;;;;;25.94;43.67;93497.97;4918060;29;9169;-70
2022/11/04 01:24:32;;;;;;;;;;;;;;;25.94;43.93;93500.72;4930945;28;9027;-70
2022/11/04 01:27:01;;;;;;;;;;;;;;;25.93;44.05;93495.72;4912597;29;10255;-70
2022/11/04 01:29:29;;;;;;;;;;;;;;;25.92;44.24;93494.25;4917880;29;9097;-70
2022/11/04 01:31:58;;;;;;;;;;;;;;;25.90;44.69;93496.81;4916890;29;7047;-70
2022/11/04 01:34:25;;;;;;;;;;;;;;;25.89;44.41;93490.56;4917144;29;9806;-69
2022/11/04 01:36:51;;;;;;;;;;;;;;;25.88;44.56;93491.81;4916228;29;7081;-70
2022/11/04 01:39:17;;;;;;;;;;;;;;;25.90;44.65;93505.78;4915762;29;7040;-70
2022/11/04 01:41:52;;;;;;;;;;;;;;;25.89;44.21;93495.31;4924332;28;7343;-70
2022/11/04 01:44:55;;;;;;;;;;;;;;;25.87;43.78;93498.63;4941531;28;7278;-70
2022/11/04 01:47:49;;;;;;;;;;;;;;;25.87;44.53;93487.59;4993590;28;7081;-70
2022/11/04 01:50:33;;;;;;;;;;;;;;;25.88;44.56;93491.09;4976366;28;7119;-70
2022/11/04 01:53:15;;;;;;;;;;;;;;;25.85;43.97;93495.66;4998367;28;8917;-69
2022/11/04 01:56:10;;;;;;;;;;;;;;;25.87;43.80;93493.09;4990361;28;10201;-70
2022/11/04 01:58:45;;;;;;;;;;;;;;;25.85;44.15;93484.63;4996515;28;9111;-70
2022/11/04 02:01:30;;;;;;;;;;;;;;;25.86;43.99;93497.13;4974561;28;6985;-69
2022/11/04 02:06:48;;;;;;;;;;;;;;;25.83;44.08;93487.19;4994043;28;8583;-70
2022/11/04 02:09:18;;;;;;;;;;;;;;;25.83;44.39;93491.94;4993401;28;7390;-70
2022/11/04 02:14:47;;;;;;;;;;;;;;;25.81;44.22;93481.47;4992774;28;7484;-69
2022/11/04 02:18:03;;;;;;;;;;;;;;;25.82;43.82;93485.69;4993023;28;8059;-69
2022/11/04 02:21:11;;;;;;;;;;;;;;;25.81;44.90;93481.47;4935369;28;9402;-69
2022/11/04 02:24:15;;;;;;;;;;;;;;;25.81;44.82;93472.47;4935699;29;7280;-69
2022/11/04 02:30:30;;;;;;;;;;;;;;;25.79;44.34;93486.78;4952469;29;7455;-70
2022/11/04 02:33:09;;;;;;;;;;;;;;;25.79;44.48;93464.75;4935624;29;7264;-69
2022/11/04 02:36:01;;;;;;;;;;;;;;;25.79;44.36;93464.75;4944958;29;7454;-69
2022/11/04 02:38:54;;;;;;;;;;;;;;;25.80;44.25;93470.97;4946932;28;9670;-69
2022/11/04 02:41:34;;;;;;;;;;;;;;;25.80;44.59;93465.47;4951750;29;6983;-70
2022/11/04 02:44:26;;;;;;;;;;;;;;;25.78;44.03;93463.25;4949017;29;7283;-69
2022/11/04 02:47:24;;;;;;;;;;;;;;;25.77;44.91;93467.28;4952122;29;9293;-70
2022/11/04 02:50:18;;;;;;;;;;;;;;;25.77;44.75;93463.78;4897815;29;7248;-70
2022/11/04 02:53:03;;;;;;;;;;;;;;;25.76;44.94;93476.81;4897677;29;8122;-69
2022/11/04 02:55:51;;;;;;;;;;;;;;;25.74;44.93;93471.09;4918036;28;6962;-69
2022/11/04 02:58:47;;;;;;;;;;;;;;;25.75;44.62;93469.09;4936415;29;7245;-70
2022/11/04 03:01:48;;;;;;;;;;;;;;;25.75;44.84;93456.03;4912777;28;7470;-70
2022/11/04 03:04:39;;;;;;;;;;;;;;;25.72;44.36;93451.63;4911217;29;7378;-70
2022/11/04 03:07:30;;;;;;;;;;;;;;;25.72;44.65;93453.63;4898267;29;7248;-69
2022/11/04 03:10:20;;;;;;;;;;;;;;;25.72;44.12;93453.63;4900472;29;7006;-69
2022/11/04 03:13:18;;;;;;;;;;;;;;;25.75;44.85;93460.84;4908153;29;7154;-69
2022/11/04 03:16:16;;;;;;;;;;;;;;;25.73;45.04;93458.59;4899539;29;7216;-70
2022/11/04 03:19:18;;;;;;;;;;;;;;;25.72;45.11;93470.16;4908120;29;7074;-70
2022/11/04 03:22:06;;;;;;;;;;;;;;;25.72;44.53;93479.16;4913331;29;7279;-70
2022/11/04 03:24:32;;;;;;;;;;;;;;;25.71;44.24;93485.94;4897341;29;7239;-70
2022/11/04 03:27:26;;;;;;;;;;;;;;;25.70;44.06;93487.22;4930334;28;7276;-69
2022/11/04 03:30:10;;;;;;;;;;;;;;;25.70;44.26;93489.97;4945108;28;7325;-70
2022/11/04 03:32:38;;;;;;;;;;;;;;;25.71;44.11;93490.72;4934072;28;9169;-70
2022/11/04 03:35:07;;;;;;;;;;;;;;;25.72;44.49;93481.91;4953407;28;7459;-70
2022/11/04 03:37:33;;;;;;;;;;;;;;;25.70;44.07;93475.47;4939078;28;9453;-70
2022/11/04 03:40:03;;;;;;;;;;;;;;;25.69;44.38;93473.97;4956023;28;9119;-70
2022/11/04 03:42:41;;;;;;;;;;;;;;;25.68;44.91;93475.25;4994026;28;7959;-70
2022/11/04 03:45:25;;;;;;;;;;;;;;;25.70;44.82;93473.44;4978073;28;7294;-69
2022/11/04 03:47:56;;;;;;;;;;;;;;;25.71;44.87;93479.69;4989848;28;9531;-70
2022/11/04 03:50:31;;;;;;;;;;;;;;;25.72;44.93;93464.63;4994609;28;6988;-70
2022/11/04 03:53:04;;;;;;;;;;;;;;;25.69;44.73;93460.19;4976609;28;7035;-70
2022/11/04 03:55:51;;;;;;;;;;;;;;;25.68;45.09;93461.47;4992322;28;7745;-69
2022/11/04 03:58:57;;;;;;;;;;;;;;;25.68;44.94;93458.72;4992271;28;7448;-69
2022/11/04 04:01:51;;;;;;;;;;;;;;;25.67;44.79;93446.22;4992415;28;7068;-70
2022/11/04 04:04:47;;;;;;;;;;;;;;;25.67;44.56;93454.47;4981526;28;7082;-70
2022/11/04 04:07:31;;;;;;;;;;;;;;;25.64;44.93;93445.28;4974807;28;7440;-70
2022/11/04 04:10:38;;;;;;;;;;;;;;;25.66;44.07;93440.00;4982727;28;7273;-69
2022/11/04 04:13:42;;;;;;;;;;;;;;;25.68;44.47;93414.66;4974868;28;8782;-70
2022/11/04 04:16:33;;;;;;;;;;;;;;;25.64;44.62;93409.50;4961509;28;7218;-70
2022/11/04 04:19:30;;;;;;;;;;;;;;;25.66;44.80;93404.19;4954165;28;7221;-70
2022/11/04 04:22:08;;;;;;;;;;;;;;;25.66;45.07;93406.19;4936010;28;7287;-70
2022/11/04 04:27:52;;;;;;;;;;;;;;;25.63;44.87;93432.78;4937605;28;8646;-70
2022/11/04 04:30:29;;;;;;;;;;;;;;;25.65;44.49;93448.75;4931488;28;7237;-70
2022/11/04 04:33:00;;;;;;;;;;;;;;;25.63;44.85;93452.06;4932035;28;7676;-70
2022/11/04 04:35:40;;;;;;;;;;;;;;;25.61;44.85;93448.34;4956177;28;7201;-70
2022/11/04 04:47:52;;;;;;;;;;;;;;;25.61;44.19;93424.31;4876980;29;9371;-70
2022/11/04 04:50:23;;;;;;;;;;;;;;;25.62;44.12;93430.56;4874231;29;7203;-70
2022/11/04 04:52:59;;;;;;;;;;;;;;;25.60;44.91;93420.06;4893281;29;7437;-70
2022/11/04 04:55:44;;;;;;;;;;;;;;;25.62;45.00;93405.78;4877817;29;7342;-70
2022/11/04 04:58:40;;;;;;;;;;;;;;;25.61;45.10;93394.03;4904531;29;7263;-70
2022/11/04 05:01:07;;;;;;;;;;;;;;;25.60;44.35;93384.28;4916426;29;7050;-70
2022/11/04 05:03:52;;;;;;;;;;;;;;;25.60;45.11;93381.53;4912821;29;9574;-70
2022/11/04 05:06:38;;;;;;;;;;;;;;;25.61;44.83;93383.00;4915449;29;9879;-70
2022/11/04 05:09:13;;;;;;;;;;;;;;;25.60;44.19;93389.78;4921310;29;6980;-70
2022/11/04 05:11:48;;;;;;;;;;;;;;;25.61;44.70;93382.28;4911354;29;8377;-70
2022/11/04 05:14:23;;;;;;;;;;;;;;;25.62;44.75;93387.22;4915889;29;7269;-70
2022/11/04 05:16:50;;;;;;;;;;;;;;;25.61;44.71;93377.50;4907403;29;8329;-70
2022/11/04 05:19:18;;;;;;;;;;;;;;;25.63;44.79;93379.72;4915405;29;7509;-70
2022/11/04 05:22:01;;;;;;;;;;;;;;;25.61;44.53;93385.78;4967449;28;9158;-70
2022/11/04 05:24:35;;;;;;;;;;;;;;;25.61;44.43;93374.00;4981819;28;8831;-70
2022/11/04 05:27:10;;;;;;;;;;;;;;;25.61;44.62;93363.75;4982967;28;7239;-70
2022/11/04 05:29:39;;;;;;;;;;;;;;;25.59;44.56;93352.53;4993259;28;9273;-70
2022/11/04 05:32:04;;;;;;;;;;;;;;;25.60;45.03;93359.50;4993564;28;7009;-70
2022/11/04 05:34:30;;;;;;;;;;;;;;;25.62;44.93;93365.19;4992438;28;7134;-70
2022/11/04 05:36:58;;;;;;;;;;;;;;;25.61;44.30;93366.50;4977102;28;7174;-70
2022/11/04 05:39:26;;;;;;;;;;;;;;;25.57;44.71;93371.59;4977162;28;7315;-70
2022/11/04 05:41:52;;;;;;;;;;;;;;;25.61;44.51;93371.25;4976484;28;7297;-70
2022/11/04 05:44:18;;;;;;;;;;;;;;;25.58;44.58;93366.84;4989275;28;7315;-70
2022/11/04 05:46:55;;;;;;;;;;;;;;;25.59;44.70;93366.28;4978154;28;7096;-70
2022/11/04 05:49:35;;;;;;;;;;;;;;;25.58;44.32;93373.06;4982801;28;7210;-70
2022/11/04 05:52:04;;;;;;;;;;;;;;;25.59;44.14;93382.06;4997959;28;7386;-70
2022/11/04 05:54:33;;;;;;;;;;;;;;;25.59;44.65;93395.84;4974362;28;8563;-70
2022/11/04 05:56:58;;;;;;;;;;;;;;;25.55;44.27;93396.16;4973508;28;8509;-70
2022/11/04 05:59:27;;;;;;;;;;;;;;;25.58;44.42;93410.88;4988012;28;8936;-69
2022/11/04 06:01:53;;;;;;;;;;;;;;;25.57;44.14;93410.16;4973593;28;7224;-70
2022/11/04 06:04:39;;;;;;;;;;;;;;;25.58;44.47;93411.59;4989827;28;7326;-69
2022/11/04 06:07:14;;;;;;;;;;;;;;;25.59;44.33;93415.84;4972163;28;8709;-71
2022/11/04 06:09:42;;;;;;;;;;;;;;;25.59;43.50;93407.59;4990320;28;9737;-70
2022/11/04 06:12:25;;;;;;;;;;;;;;;25.58;43.89;93406.09;4979958;28;9055;-70
2022/11/04 06:14:55;;;;;;;;;;;;;;;25.59;43.28;93404.09;4971932;28;7534;-69
2022/11/04 06:17:23;;;;;;;;;;;;;;;25.56;43.09;93397.63;4992362;28;7258;-70
2022/11/04 06:19:51;;;;;;;;;;;;;;;25.55;43.77;93385.16;4957040;28;7256;-70
2022/11/04 06:22:19;;;;;;;;;;;;;;;25.55;43.69;93381.66;4997266;28;6998;-70
2022/11/04 06:24:44;;;;;;;;;;;;;;;25.54;42.96;93382.91;4973636;28;7466;-69
2022/11/04 06:27:12;;;;;;;;;;;;;;;25.54;43.09;93388.44;4976052;28;7354;-70
2022/11/04 06:29:41;;;;;;;;;;;;;;;25.52;43.73;93377.97;4985204;28;7221;-70
2022/11/04 06:32:15;;;;;;;;;;;;;;;25.55;42.82;93379.66;4965987;28;7899;-71
2022/11/04 06:34:41;;;;;;;;;;;;;;;25.54;43.83;93386.41;4987322;28;7630;-70
2022/11/04 06:37:08;;;;;;;;;;;;;;;25.53;43.44;93382.19;4970935;28;9409;-70
2022/11/04 06:39:37;;;;;;;;;;;;;;;25.53;43.14;93382.19;4986377;28;7524;-70
2022/11/04 06:42:09;;;;;;;;;;;;;;;25.50;43.82;93377.75;4981021;28;7275;-69
2022/11/04 06:44:44;;;;;;;;;;;;;;;25.50;43.43;93375.00;4991274;28;8691;-70
2022/11/04 06:47:15;;;;;;;;;;;;;;;25.52;43.15;93380.72;4986313;28;9451;-70
2022/11/04 06:49:49;;;;;;;;;;;;;;;25.50;43.26;93386.00;4985839;28;9220;-70
2022/11/04 06:52:22;;;;;;;;;;;;;;;25.51;43.00;93384.75;4983980;28;7359;-70
2022/11/04 06:54:49;;;;;;;;;;;;;;;25.48;42.85;93380.31;4976387;28;7148;-69
2022/11/04 06:57:28;;;;;;;;;;;;;;;25.51;43.51;93392.25;4992620;28;6867;-70
2022/11/04 07:00:06;;;;;;;;;;;;;;;25.48;44.12;93376.81;4991007;28;7033;-70
2022/11/04 07:02:36;;;;;;;;;;;;;;;25.48;44.10;93374.03;4972630;28;9037;-70
2022/11/04 07:05:14;;;;;;;;;;;;;;;25.46;44.42;93382.09;4992496;28;7339;-71
2022/11/04 07:07:40;;;;;;;;;;;;;;;25.41;44.57;93376.16;4969424;28;7237;-70
2022/11/04 07:10:41;;;;;;;;;;;;;;;25.42;44.41;93365.94;4971981;28;7234;-71
2022/11/04 07:13:35;;;;;;;;;;;;;;;25.40;44.74;93362.94;4967869;28;8061;-70
2022/11/04 07:16:18;;;;;;;;;;;;;;;25.37;44.91;93350.22;4912899;29;9096;-71
2022/11/04 07:18:46;;;;;;;;;;;;;;;25.38;44.28;93352.44;4905296;29;7331;-70
2022/11/04 07:21:12;;;;;;;;;;;;;;;25.41;44.35;93351.38;4921944;29;7219;-71
2022/11/04 07:23:51;;;;;;;;;;;;;;;25.41;45.57;93345.13;4926843;29;7018;-70
2022/11/04 07:26:25;;;;;;;;;;;;;;;25.39;44.22;93339.44;4923387;29;7431;-69
2022/11/04 07:29:09;;;;;;;;;;;;;;;25.43;43.91;93337.09;4906648;29;7880;-71
2022/11/04 07:31:38;;;;;;;;;;;;;;;25.41;44.57;93332.13;4918862;29;7390;-71
2022/11/04 07:34:06;;;;;;;;;;;;;;;25.42;44.68;93338.41;4911114;29;7432;-70
2022/11/04 07:36:34;;;;;;;;;;;;;;;25.41;44.27;93334.88;4919599;29;6987;-70
2022/11/04 07:39:02;;;;;;;;;;;;;;;25.39;44.44;93342.19;4923724;29;10226;-70
2022/11/04 07:41:35;;;;;;;;;;;;;;;25.40;45.26;93340.91;4920899;28;7015;-70
2022/11/04 07:44:13;;;;;;;;;;;;;;;25.43;44.49;93351.63;4915631;29;7263;-69
2022/11/04 07:46:43;;;;;;;;;;;;;;;25.41;44.45;93340.38;4918881;29;8297;-70
2022/11/04 07:49:24;;;;;;;;;;;;;;;25.45;45.07;93336.59;4925639;29;9074;-70
2022/11/04 07:52:07;;;;;;;;;;;;;;;25.43;44.73;93340.59;4913782;28;7114;-70
2022/11/04 07:54:34;;;;;;;;;;;;;;;25.43;44.84;93335.09;4977719;28;7321;-70
2022/11/04 07:57:02;;;;;;;;;;;;;;;25.43;44.68;93348.88;4995645;28;7225;-61
2022/11/04 07:59:41;;;;;;;;;;;;;;;25.45;44.23;93350.34;4977213;28;8723;-62
2022/11/04 08:02:33;;;;;;;;;;;;;;;25.47;44.79;93361.56;4977703;28;7203;-61
2022/11/04 08:05:10;;;;;;;;;;;;;;;25.46;44.56;93352.56;4992637;28;10470;-61
2022/11/04 08:08:15;;;;;;;;;;;;;;;25.45;44.73;93353.81;4988293;28;6975;-61
2022/11/04 08:10:41;;;;;;;;;;;;;;;25.46;44.72;93360.09;4938308;28;6999;-61
2022/11/04 08:13:09;;;;;;;;;;;;;;;25.48;45.26;93363.03;4946159;28;8625;-61
2022/11/04 08:15:45;;;;;;;;;;;;;;;25.46;44.55;93366.34;4951636;28;9622;-61
2022/11/04 08:18:25;;;;;;;;;;;;;;;25.44;44.82;93368.88;4941324;28;7397;-61
2022/11/04 08:20:51;;;;;;;;;;;;;;;25.44;44.49;93363.38;4933749;28;7200;-62
2022/11/04 08:23:31;;;;;;;;;;;;;;;25.46;44.78;93363.59;4945608;28;7323;-61
2022/11/04 08:26:18;;;;;;;;;;;;;;;25.47;45.36;93364.31;4947194;28;7279;-61
2022/11/04 08:29:00;;;;;;;;;;;;;;;25.43;45.38;93365.38;4949978;28;7323;-61
2022/11/04 08:31:35;;;;;;;;;;;;;;;25.44;44.79;93368.88;4950174;28;9119;-62
2022/11/04 08:34:01;;;;;;;;;;;;;;;25.47;44.69;93369.84;4935872;28;7354;-61
2022/11/04 08:36:35;;;;;;;;;;;;;;;25.47;44.82;93365.03;4953021;28;7003;-61
2022/11/04 08:39:03;;;;;;;;;;;;;;;25.47;45.33;93362.28;4937667;28;8732;-62
2022/11/04 08:41:44;;;;;;;;;;;;;;;25.46;45.04;93355.31;4972618;28;7385;-62
2022/11/04 08:44:20;;;;;;;;;;;;;;;25.47;45.36;93354.03;4994346;28;7351;-62
2022/11/04 08:46:53;;;;;;;;;;;;;;;25.48;44.61;93346.53;4986908;28;7167;-61
2022/11/04 08:49:22;;;;;;;;;;;;;;;25.48;44.56;93330.75;4978121;28;7268;-62
2022/11/04 08:51:55;;;;;;;;;;;;;;;25.46;45.45;93330.53;4976733;28;7067;-62
2022/11/04 08:54:28;;;;;;;;;;;;;;;25.47;45.11;93334.75;4988651;28;9438;-61
2022/11/04 08:57:00;;;;;;;;;;;;;;;25.47;44.78;93334.03;4993903;28;8966;-61
2022/11/04 08:59:28;;;;;;;;;;;;;;;25.46;45.46;93332.56;4976864;28;9260;-61
2022/11/04 09:01:55;;;;;;;;;;;;;;;25.47;44.98;93323.75;4975337;28;8058;-61
2022/11/04 09:04:24;;;;;;;;;;;;;;;25.47;45.11;93309.97;4991470;28;7413;-61
2022/11/04 09:06:51;;;;;;;;;;;;;;;25.46;45.27;93300.25;4989705;28;7264;-61
2022/11/04 09:09:23;;;;;;;;;;;;;;;25.47;44.55;93312.03;4975021;28;8181;-61
2022/11/04 09:11:49;;;;;;;;;;;;;;;25.43;45.39;93307.56;4994195;28;7220;-61
2022/11/04 09:14:32;;;;;;;;;;;;;;;25.47;45.55;93318.25;4992451;28;7009;-61
2022/11/04 09:17:13;;;;;;;;;;;;;;;25.47;45.34;93321.00;4991948;28;7303;-61
2022/11/04 09:19:38;;;;;;;;;;;;;;;25.45;45.27;93312.53;4972656;28;8539;-61
2022/11/04 09:22:43;;;;;;;;;;;;;;;25.48;45.28;93332.75;4991669;28;7005;-61
2022/11/04 09:25:10;;;;;;;;;;;;;;;25.47;44.90;93326.50;4898457;29;7129;-62
2022/11/04 09:27:37;;;;;;;;;;;;;;;25.47;45.45;93329.25;4913916;29;7218;-61
2022/11/04 09:30:16;;;;;;;;;;;;;;;25.48;44.87;93319.72;4917574;29;8586;-61
2022/11/04 09:32:51;;;;;;;;;;;;;;;25.50;45.17;93319.19;4918603;29;7143;-61
2022/11/04 09:35:18;;;;;;;;;;;;;;;25.51;45.79;93321.44;4927170;29;6969;-61
2022/11/04 09:37:45;;;;;;;;;;;;;;;25.50;44.94;93319.94;4927903;29;7476;-62
2022/11/04 09:40:19;;;;;;;;;;;;;;;25.52;44.75;93322.88;4915764;29;8865;-62
2022/11/04 09:43:03;;;;;;;;;;;;;;;25.52;45.25;93317.38;4895654;29;7205;-61
2022/11/04 09:45:32;;;;;;;;;;;;;;;25.50;44.96;93322.69;4910640;29;7372;-61
2022/11/04 09:48:07;;;;;;;;;;;;;;;25.50;44.93;93321.94;4907733;29;9351;-61
2022/11/04 09:50:48;;;;;;;;;;;;;;;25.52;44.79;93325.66;4906398;29;7413;-61
2022/11/04 09:53:18;;;;;;;;;;;;;;;25.55;45.64;93321.09;4910285;29;9244;-61
2022/11/04 09:55:53;;;;;;;;;;;;;;;25.52;45.13;93317.38;4942250;28;10127;-61
2022/11/04 09:58:19;;;;;;;;;;;;;;;25.54;44.89;93317.59;4991748;28;7422;-61
2022/11/04 10:01:05;;;;;;;;;;;;;;;25.53;45.27;93307.88;4969134;28;7313;-61
2022/11/04 10:03:56;;;;;;;;;;;;;;;25.56;44.72;93314.28;4982742;28;7118;-61
2022/11/04 10:07:06;;;;;;;;;;;;;;;25.57;44.91;93316.53;4983986;28;7016;-61
2022/11/04 10:10:00;;;;;;;;;;;;;;;25.56;45.72;93315.03;4973561;28;9060;-60
2022/11/04 10:12:49;;;;;;;;;;;;;;;25.56;45.47;93308.78;4986800;28;7506;-60
2022/11/04 10:15:34;;;;;;;;;;;;;;;25.54;44.90;93311.34;4983049;28;7208;-61
2022/11/04 10:18:47;;;;;;;;;;;;;;;25.55;44.91;93307.31;4979374;28;7241;-61
2022/11/04 10:21:50;;;;;;;;;;;;;;;25.55;45.78;93302.56;4977559;28;7302;-61
2022/11/04 10:24:29;;;;;;;;;;;;;;;25.56;45.48;93295.00;4987580;28;9204;-61
2022/11/04 10:27:02;;;;;;;;;;;;;;;25.57;45.62;93291.75;4984266;28;9716;-60
2022/11/04 10:29:30;;;;;;;;;;;;;;;25.56;45.56;93290.25;4971849;28;7260;-61
2022/11/04 10:32:17;;;;;;;;;;;;;;;25.56;45.19;93284.00;4968777;28;7070;-61
2022/11/04 10:34:55;;;;;;;;;;;;;;;25.56;45.23;93286.75;4970811;28;7231;-61
2022/11/04 10:37:22;;;;;;;;;;;;;;;25.57;45.80;93285.50;4986665;28;6986;-61
2022/11/04 10:39:48;;;;;;;;;;;;;;;25.57;44.82;93283.47;4993047;28;7279;-62
2022/11/04 10:42:21;;;;;;;;;;;;;;;25.56;45.02;93273.72;4971894;28;7108;-61
2022/11/04 10:44:54;;;;;;;;;;;;;;;25.58;45.84;93279.44;4986186;28;9667;-61
2022/11/04 10:47:48;;;;;;;;;;;;;;;25.59;45.89;93269.91;4989913;28;7260;-61
2022/11/04 10:50:55;;;;;;;;;;;;;;;25.62;44.63;93279.13;4985847;28;7428;-61
2022/11/04 10:53:45;;;;;;;;;;;;;;;25.61;44.75;93269.38;4947152;28;7889;-61
2022/11/04 10:57:00;;;;;;;;;;;;;;;25.60;44.56;93270.66;4926144;29;7271;-61
2022/11/04 10:59:46;;;;;;;;;;;;;;;25.60;45.19;93271.38;4911493;29;7428;-61
2022/11/04 11:02:14;;;;;;;;;;;;;;;25.59;44.94;93266.41;4888285;29;7263;-61
2022/11/04 11:04:43;;;;;;;;;;;;;;;25.60;44.74;93267.91;4894801;29;7385;-61
2022/11/04 11:07:17;;;;;;;;;;;;;;;25.59;45.49;93258.16;4905783;29;7460;-61
2022/11/04 11:09:56;;;;;;;;;;;;;;;25.59;44.88;93266.41;4908357;29;6983;-62
2022/11/04 11:12:45;;;;;;;;;;;;;;;25.61;45.25;93269.38;4911450;29;7236;-62
2022/11/04 11:16:02;;;;;;;;;;;;;;;25.59;45.92;93269.91;4906658;29;9591;-62
2022/11/04 11:18:43;;;;;;;;;;;;;;;25.58;45.23;93257.41;4870513;29;7226;-60
2022/11/04 11:21:20;;;;;;;;;;;;;;;25.58;46.07;93262.19;4879018;29;8973;-60
2022/11/04 11:23:53;;;;;;;;;;;;;;;25.57;46.18;93255.94;4870083;29;7440;-60
2022/11/04 11:26:30;;;;;;;;;;;;;;;25.56;46.50;93257.22;4876495;29;8858;-60
2022/11/04 11:29:06;;;;;;;;;;;;;;;25.57;46.29;93255.94;4875648;29;8873;-60
2022/11/04 11:32:14;;;;;;;;;;;;;;;25.57;47.24;93266.22;4878904;29;6995;-61
2022/11/04 11:34:44;;;;;;;;;;;;;;;25.59;46.62;93253.41;4878510;29;7401;-61
2022/11/04 11:37:23;;;;;;;;;;;;;;;25.58;46.49;93251.91;4917290;29;7031;-60
2022/11/04 11:39:49;;;;;;;;;;;;;;;25.59;46.48;93250.63;4919080;29;7334;-60
2022/11/04 11:42:19;;;;;;;;;;;;;;;25.61;46.07;93245.34;4920561;29;8576;-61
2022/11/04 11:44:55;;;;;;;;;;;;;;;25.63;46.29;93248.28;4916313;29;8874;-61
2022/11/04 11:47:28;;;;;;;;;;;;;;;25.67;46.75;93245.19;4916816;29;7215;-61
2022/11/04 11:50:33;;;;;;;;;;;;;;;25.69;46.51;93243.38;4978069;28;7222;-61
2022/11/04 11:53:23;;;;;;;;;;;;;;;25.71;46.81;93249.06;4987548;28;8475;-60
2022/11/04 11:56:29;;;;;;;;;;;;;;;25.70;46.52;93246.88;4985651;28;7077;-60
2022/11/04 11:59:21;;;;;;;;;;;;;;;25.73;45.67;93246.53;4993948;28;7136;-61
2022/11/04 12:02:03;;;;;;;;;;;;;;;25.72;45.73;93245.06;4991809;28;6860;-60
2022/11/04 12:04:46;;;;;;;;;;;;;;;25.67;45.78;93239.69;4994778;28;8906;-61
2022/11/04 12:07:33;;;;;;;;;;;;;;;25.67;45.29;93243.16;4991547;28;7300;-60
2022/11/04 12:10:21;;;;;;;;;;;;;;;25.67;44.95;93243.16;4999845;28;8988;-60
2022/11/04 12:13:15;;;;;;;;;;;;;;;25.70;45.19;93241.38;4973945;28;7288;-60
2022/11/04 12:16:30;;;;;;;;;;;;;;;25.73;45.43;93241.00;4980382;28;7408;-60
2022/11/04 12:19:32;;;;;;;;;;;;;;;25.73;45.55;93235.50;4993137;28;7287;-60
2022/11/04 12:22:54;;;;;;;;;;;;;;;25.76;45.94;93242.69;4992822;28;9065;-60
2022/11/04 12:25:45;;;;;;;;;;;;;;;25.74;46.27;93239.75;4915252;29;7268;-60
2022/11/04 12:29:00;;;;;;;;;;;;;;;25.78;46.08;93242.91;4912517;29;8324;-60
2022/11/04 12:31:42;;;;;;;;;;;;;;;25.81;45.67;93241.81;4915063;29;9051;-60
2022/11/04 12:34:49;;;;;;;;;;;;;;;25.78;46.51;93237.38;4896336;29;7512;-60
2022/11/04 12:37:17;;;;;;;;;;;;;;;25.78;46.59;93242.16;4917674;29;8182;-60
2022/11/04 12:40:48;;;;;;;;;;;;;;;25.78;45.78;93253.16;4915150;29;7453;-60
2022/11/04 12:44:09;;;;;;;;;;;;;;;25.79;45.97;93249.91;4854365;29;7448;-60
2022/11/04 12:47:17;;;;;;;;;;;;;;;25.79;45.86;93254.66;4779417;29;7359;-60
2022/11/04 12:50:12;;;;;;;;;;;;;;;25.80;46.00;93248.59;4773281;30;7767;-60
2022/11/04 12:53:13;;;;;;;;;;;;;;;25.81;45.72;93254.84;4760067;30;8318;-60
2022/11/04 12:56:11;;;;;;;;;;;;;;;25.82;45.82;93248.06;4755444;30;7765;-60
2022/11/04 12:59:13;;;;;;;;;;;;;;;25.82;45.58;93248.78;4777616;29;7592;-60
2022/11/04 13:02:02;;;;;;;;;;;;;;;25.81;46.08;93258.34;4804151;29;7070;-60
2022/11/04 13:04:42;;;;;;;;;;;;;;;25.81;46.47;93260.38;4811951;29;7561;-60
2022/11/04 13:07:40;;;;;;;;;;;;;;;25.81;45.80;93260.38;4803642;29;7091;-60
2022/11/04 13:10:21;;;;;;;;;;;;;;;25.78;46.28;93264.94;4803450;29;9207;-60
2022/11/04 13:13:01;;;;;;;;;;;;;;;25.77;45.83;93262.72;4783478;29;9019;-60
2022/11/04 13:15:58;;;;;;;;;;;;;;;25.78;46.41;93264.94;4856022;29;6984;-60
2022/11/04 13:18:41;;;;;;;;;;;;;;;25.78;46.56;93264.94;4857599;29;8492;-60
2022/11/04 13:21:20;;;;;;;;;;;;;;;25.78;45.78;93270.44;4888063;29;7077;-60
2022/11/04 13:24:14;;;;;;;;;;;;;;;25.80;46.24;93278.91;4892660;29;7490;-60
2022/11/04 13:26:40;;;;;;;;;;;;;;;25.81;45.76;93272.13;4962271;28;7447;-60
2022/11/04 13:29:20;;;;;;;;;;;;;;;25.83;45.92;93272.31;4975819;28;7256;-60
2022/11/04 13:32:07;;;;;;;;;;;;;;;25.82;45.77;93270.84;4975684;28;7234;-60
2022/11/04 13:35:03;;;;;;;;;;;;;;;25.86;45.56;93270.50;4989285;28;7237;-60
2022/11/04 13:37:41;;;;;;;;;;;;;;;25.86;46.14;93271.22;4972641;28;7250;-60
2022/11/04 13:40:14;;;;;;;;;;;;;;;25.84;46.08;93273.78;4988498;28;7515;-60
2022/11/04 13:43:36;;;;;;;;;;;;;;;25.87;45.70;93272.72;4971847;28;8992;-61
2022/11/04 13:46:28;;;;;;;;;;;;;;;25.89;46.29;93278.44;4990493;28;9093;-60
2022/11/04 13:49:15;;;;;;;;;;;;;;;25.89;45.69;93283.19;4950938;28;7236;-60
2022/11/04 13:52:01;;;;;;;;;;;;;;;25.85;46.20;93275.28;4935046;28;7227;-60
2022/11/04 13:54:33;;;;;;;;;;;;;;;25.87;46.14;93278.22;4948821;28;7120;-60
2022/11/04 13:57:11;;;;;;;;;;;;;;;25.89;45.55;93277.69;4939656;28;9008;-60
2022/11/04 13:59:38;;;;;;;;;;;;;;;25.90;45.93;93277.13;4937757;28;8913;-60
2022/11/04 14:02:13;;;;;;;;;;;;;;;25.90;45.43;93276.41;4949335;28;7218;-60
2022/11/04 14:04:44;;;;;;;;;;;;;;;25.90;45.27;93279.88;4942791;28;8177;-60
2022/11/04 14:07:55;;;;;;;;;;;;;;;25.91;45.12;93278.63;4949951;28;7172;-60
2022/11/04 14:10:44;;;;;;;;;;;;;;;25.91;46.03;93281.38;4946797;28;7252;-60
2022/11/04 14:13:33;;;;;;;;;;;;;;;25.93;45.50;93286.34;4934290;28;6971;-60
2022/11/04 14:16:22;;;;;;;;;;;;;;;25.90;45.93;93281.94;4949577;28;7671;-60
2022/11/04 14:18:50;;;;;;;;;;;;;;;25.91;46.21;93283.38;4940869;28;7254;-60
2022/11/04 14:21:24;;;;;;;;;;;;;;;25.90;46.00;93284.69;4927470;28;7392;-60
2022/11/04 14:24:12;;;;;;;;;;;;;;;25.90;45.40;93288.16;4952539;28;7344;-60
2022/11/04 14:26:47;;;;;;;;;;;;;;;25.90;45.88;93288.16;4990030;28;7322;-60
2022/11/04 14:29:16;;;;;;;;;;;;;;;25.89;46.13;93292.19;4985901;28;7482;-60
2022/11/04 14:31:59;;;;;;;;;;;;;;;25.89;47.14;93294.97;4997648;28;9521;-60
2022/11/04 14:34:41;;;;;;;;;;;;;;;25.91;46.89;93289.66;4980531;28;9066;-60
2022/11/04 14:37:22;;;;;;;;;;;;;;;25.90;45.51;93293.66;4991910;28;7005;-60
2022/11/04 14:39:59;;;;;;;;;;;;;;;25.88;45.94;93296.22;4985030;28;7236;-60
2022/11/04 14:42:53;;;;;;;;;;;;;;;25.87;46.17;93292.00;4993692;28;7230;-60